Time;durP1;ratioP1;P1;durP2;ratioP2;P2;SDS_P1;SDS_P2;PMS_P1;PMS_P2;Temp;Humidity;BMP_temperature;BMP_pressure;BME280_temperature;BME280_humidity;BME280_pressure;Samples;Min_cycle;Max_cycle;Signal;HPM_P1;HPM_P2
2023/12/26 16:11:35;;;;;;;7.60;2.28;;;;;;;;;;6214097;22;20028;-82
2023/12/26 16:28:00;;;;;;;9.40;2.50;;;;;;;;;;5790413;24;20036;-84
2023/12/26 16:44:01;;;;;;;;;;;;;;;;;;;;;
2023/12/26 16:46:58;;;;;;;10.52;2.58;;;;;;;;;;5872676;24;20452;-85
2023/12/26 16:49:24;;;;;;;5.60;2.30;;;;;;;;;;5871778;24;20085;-85
2023/12/26 16:54:54;;;;;;;7.80;2.20;;;;;;;;;;5899845;24;20135;-82
2023/12/26 16:57:48;;;;;;;6.53;2.33;;;;;;;;;;5936222;23;20052;-82
2023/12/26 17:10:56;;;;;;;5.80;1.92;;;;;;;;;;5894419;24;20281;-83
2023/12/26 17:20:53;;;;;;;7.57;2.60;;;;;;;;;;6008987;23;20071;-84
2023/12/26 17:23:35;;;;;;;8.55;2.63;;;;;;;;;;5996832;23;20144;-84
2023/12/26 17:26:42;;;;;;;11.77;2.70;;;;;;;;;;6099288;23;20489;-82
2023/12/26 17:32:57;;;;;;;10.18;2.38;;;;;;;;;;6099709;23;20022;-83
2023/12/26 17:42:29;;;;;;;9.27;2.33;;;;;;;;;;6123554;23;20012;-84
2023/12/26 17:45:08;;;;;;;12.27;2.53;;;;;;;;;;6075938;23;20455;-84
2023/12/26 17:47:55;;;;;;;7.40;2.22;;;;;;;;;;6124469;23;20477;-84
2023/12/26 17:50:57;;;;;;;6.15;2.30;;;;;;;;;;6102303;23;20033;-84
2023/12/26 17:53:23;;;;;;;7.63;2.42;;;;;;;;;;6099188;23;20098;-82
2023/12/26 17:56:18;;;;;;;;;;;;;;;;;;;;;
2023/12/26 17:59:04;;;;;;;8.63;2.10;;;;;;;;;;6047172;23;20341;-82
2023/12/26 18:01:39;;;;;;;7.70;2.40;;;;;;;;;;6099739;23;20037;-81
2023/12/26 18:04:10;;;;;;;8.23;1.98;;;;;;;;;;6156799;23;20033;-80
2023/12/26 18:06:49;;;;;;;8.50;2.45;;;;;;;;;;6160055;23;20552;-81
2023/12/26 18:09:21;;;;;;;8.75;2.17;;;;;;;;;;6159453;23;20033;-82
2023/12/26 18:11:55;;;;;;;8.95;2.20;;;;;;;;;;6130085;23;20040;-82
2023/12/26 18:14:27;;;;;;;11.40;2.92;;;;;;;;;;6155259;23;20454;-81
2023/12/26 18:17:02;;;;;;;10.82;1.98;;;;;;;;;;6154637;23;20026;-82
2023/12/26 18:19:36;;;;;;;10.65;2.42;;;;;;;;;;6155402;23;20029;-82
2023/12/26 18:25:05;;;;;;;7.93;2.17;;;;;;;;;;6151923;23;20525;-82
2023/12/26 18:27:41;;;;;;;8.75;2.30;;;;;;;;;;6160525;23;20071;-82
2023/12/26 18:30:14;;;;;;;6.60;2.83;;;;;;;;;;6186173;23;20021;-82
2023/12/26 18:32:46;;;;;;;10.18;2.63;;;;;;;;;;6159424;23;20068;-82
2023/12/26 18:35:29;;;;;;;7.40;2.10;;;;;;;;;;6159764;23;20021;-82
2023/12/26 18:38:02;;;;;;;10.60;2.58;;;;;;;;;;6158807;23;20029;-82
2023/12/26 18:40:31;;;;;;;10.07;2.97;;;;;;;;;;6159711;23;20025;-82
2023/12/26 18:43:05;;;;;;;5.72;2.00;;;;;;;;;;6186357;23;20092;-82
2023/12/26 18:45:31;;;;;;;5.25;2.00;;;;;;;;;;6159905;23;20331;-82
2023/12/26 18:48:03;;;;;;;12.45;2.92;;;;;;;;;;6159176;23;20052;-82
2023/12/26 18:50:41;;;;;;;8.45;2.13;;;;;;;;;;6188267;23;20017;-82
2023/12/26 18:53:27;;;;;;;9.27;2.17;;;;;;;;;;6161544;23;20031;-82
2023/12/26 18:56:51;;;;;;;4.85;1.80;;;;;;;;;;6189851;23;20081;-83
2023/12/26 18:59:38;;;;;;;7.53;2.10;;;;;;;;;;6169373;23;20444;-82
2023/12/26 19:02:19;;;;;;;12.43;2.35;;;;;;;;;;6165079;23;20029;-83
2023/12/26 19:04:51;;;;;;;12.68;2.28;;;;;;;;;;6191566;23;20025;-82
2023/12/26 19:08:02;;;;;;;8.35;2.50;;;;;;;;;;6163697;23;20025;-83
2023/12/26 19:14:59;;;;;;;8.75;2.20;;;;;;;;;;6070025;23;20105;-82
2023/12/26 19:18:13;;;;;;;;;;;;;;;;;;;;;
2023/12/26 19:20:45;;;;;;;9.52;2.60;;;;;;;;;;6165139;23;20028;-82
2023/12/26 19:23:47;;;;;;;8.77;2.50;;;;;;;;;;6164928;23;20057;-82
2023/12/26 19:26:56;;;;;;;10.73;2.92;;;;;;;;;;6163891;23;20079;-82
2023/12/26 19:29:34;;;;;;;11.95;3.00;;;;;;;;;;6190435;23;20021;-82
2023/12/26 19:32:08;;;;;;;12.77;2.72;;;;;;;;;;6163652;23;20032;-82
2023/12/26 19:38:52;;;;;;;;;;;;;;;;;;;;;
2023/12/26 19:45:04;;;;;;;7.43;2.20;;;;;;;;;;6183731;23;20056;-82
2023/12/26 19:48:18;;;;;;;7.95;2.20;;;;;;;;;;6163342;23;20035;-82
2023/12/26 19:51:01;;;;;;;6.70;2.00;;;;;;;;;;6162882;23;20028;-82
2023/12/26 19:53:48;;;;;;;8.38;2.05;;;;;;;;;;6190626;23;20203;-82
2023/12/26 19:56:36;;;;;;;;;;;;;;;;;;;;;
2023/12/26 20:04:00;;;;;;;;;;;;;;;;;;;;;
2023/12/26 20:07:24;;;;;;;8.70;2.05;;;;;;;;;;5946203;23;20076;-82
2023/12/26 20:10:13;;;;;;;11.57;1.98;;;;;;;;;;5956055;24;20047;-82
2023/12/26 20:19:38;;;;;;;7.75;2.17;;;;;;;;;;5927860;24;20451;-82
2023/12/26 20:25:40;;;;;;;6.10;2.72;;;;;;;;;;5871016;24;19956;-82
2023/12/26 20:28:59;;;;;;;7.88;2.20;;;;;;;;;;5972781;23;20081;-82
2023/12/26 20:46:11;;;;;;;11.30;2.63;;;;;;;;;;6056363;23;20030;-82
2023/12/26 21:55:18;;;;;;;12.70;3.22;;;;;;;;;;5925119;24;20548;-83
2023/12/26 22:01:57;;;;;;;;;;;;;;;;;;;;;
